Main page
METAR-TAF:

METAR-TAF

Airports :

Paris-Charles De Gaulle, France

Charles de Gaulle Airport

latitude: 49-01N, longitude: 002-32E, elevation: 118 m

Current weather observation

The report was made 39 minutes ago, at 20:00 UTC
Wind 6 kt from the Northwest
Temperature 18°C
Humidity 68%
Pressure 1021 hPa
Visibility 10 km or more
Few clouds at a height of 4000 ft

METAR: LFPG 232000Z 32006KT 9999 FEW040 18/12 Q1021 NOSIG

Time: 22:39 (20:39 UTC)

Forecast

The report was made 3 hours and 39 minutes ago, at 17:00 UTC
Forecast valid from 23 at 18 UTC to 24 at 24 UTC
Wind 10 kt from the West/Northwest
Visibility 10 km or more
no clouds below 1500 m and no cumulonimbus
Becoming
from 24 at 03 UTC to 24 at 05 UTC
Wind 5 kt from the West/Southwest

TAF: LFPG 231700Z 2318/2424 30010KT CAVOK BECMG 2403/2405 24005KT TX28/2415Z TN15/2404Z

Weather observations and forecasts of more than 4000 airports (METAR and TAF reports).

The available stations are represented by yellow and red dots on the map.

Hover mouse over dot to see the name of the station.

Then click to see weather observations and forecasts.

To change the map : click on the green buttons with a black cross to zoom in, on the green button with a dash to zoom out, or on the green arrows for adjacent maps.


METAR-TAF: